Time;durP1;ratioP1;P1;durP2;ratioP2;P2;SDS_P1;SDS_P2;PMS_P1;PMS_P2;Temp;Humidity;BMP_temperature;BMP_pressure;BME280_temperature;BME280_humidity;BME280_pressure;Samples;Min_cycle;Max_cycle;Signal;HPM_P1;HPM_P2
2022/12/26 00:01:47;;;;;;;46.33;26.73;;;6.10;99.90;;;;;;5100965;27;20234;-84
2022/12/26 00:04:36;;;;;;;47.60;27.40;;;6.20;99.90;;;;;;5095136;28;20242;-82
2022/12/26 00:07:40;;;;;;;42.83;25.57;;;6.10;99.90;;;;;;5119526;27;20298;-84
2022/12/26 00:10:29;;;;;;;46.50;27.87;;;6.10;99.90;;;;;;5093675;28;20259;-84
2022/12/26 00:13:18;;;;;;;43.17;25.00;;;6.10;99.90;;;;;;5095771;27;20247;-84
2022/12/26 00:16:28;;;;;;;54.13;27.87;;;6.10;99.90;;;;;;5101455;27;20214;-84
2022/12/26 00:19:17;;;;;;;47.53;26.47;;;6.10;99.90;;;;;;5114709;27;20222;-83
2022/12/26 00:22:07;;;;;;;45.83;26.83;;;6.10;99.90;;;;;;5105061;27;20218;-83
2022/12/26 00:24:56;;;;;;;45.30;25.80;;;6.00;99.90;;;;;;5102769;27;20235;-83
2022/12/26 00:27:45;;;;;;;45.07;26.10;;;6.00;99.90;;;;;;5103248;27;20593;-83
2022/12/26 00:30:33;;;;;;;47.23;27.37;;;6.00;99.90;;;;;;5101848;28;20227;-84
2022/12/26 00:33:24;;;;;;;45.27;26.97;;;6.00;99.90;;;;;;5100373;27;20227;-83
2022/12/26 00:36:14;;;;;;;42.00;26.37;;;6.10;99.90;;;;;;5103562;28;20252;-84
2022/12/26 00:39:04;;;;;;;43.63;25.77;;;6.10;99.90;;;;;;5122602;27;20226;-85
2022/12/26 00:41:53;;;;;;;48.43;27.30;;;6.10;99.90;;;;;;5088940;27;20239;-83
2022/12/26 00:44:41;;;;;;;47.10;25.10;;;6.20;99.90;;;;;;5101113;27;20239;-83
2022/12/26 00:47:30;;;;;;;46.20;26.43;;;6.20;99.90;;;;;;5105137;27;20222;-84
2022/12/26 00:50:20;;;;;;;43.27;25.77;;;6.10;99.90;;;;;;5102054;27;20227;-83
2022/12/26 00:53:09;;;;;;;43.90;25.37;;;6.10;99.90;;;;;;5094960;27;20885;-83
2022/12/26 00:55:58;;;;;;;41.50;26.00;;;6.10;99.90;;;;;;5093572;28;20876;-84
2022/12/26 00:58:47;;;;;;;44.40;26.57;;;6.10;99.90;;;;;;5093544;27;20223;-83
2022/12/26 01:01:35;;;;;;;44.87;25.80;;;6.10;99.90;;;;;;5096163;28;20217;-84
2022/12/26 01:04:25;;;;;;;47.40;26.47;;;6.10;99.90;;;;;;5100166;27;20902;-83
2022/12/26 01:07:15;;;;;;;41.90;25.70;;;6.00;99.90;;;;;;5100046;27;20223;-84
2022/12/26 01:10:04;;;;;;;49.43;27.57;;;6.00;99.90;;;;;;5103609;27;20228;-84
2022/12/26 01:12:53;;;;;;;43.97;25.50;;;6.00;99.90;;;;;;5100564;28;20235;-83
2022/12/26 01:15:48;;;;;;;45.20;25.37;;;6.00;99.90;;;;;;5095479;28;20220;-83
2022/12/26 01:18:37;;;;;;;45.60;25.77;;;5.90;99.90;;;;;;5125942;27;20223;-83
2022/12/26 01:21:26;;;;;;;42.70;26.30;;;6.10;99.90;;;;;;5101614;27;20223;-84
2022/12/26 01:24:16;;;;;;;46.97;26.13;;;5.90;99.90;;;;;;5096286;28;20224;-84
2022/12/26 01:27:04;;;;;;;43.77;25.27;;;6.00;99.90;;;;;;5102614;27;20865;-83
2022/12/26 01:29:54;;;;;;;47.97;26.80;;;6.10;99.90;;;;;;5105756;27;20234;-84
2022/12/26 01:32:42;;;;;;;42.23;25.93;;;6.10;99.90;;;;;;5104899;28;20223;-84
2022/12/26 01:35:31;;;;;;;48.03;26.37;;;6.20;99.90;;;;;;5107139;27;20567;-83
2022/12/26 01:38:21;;;;;;;42.30;25.67;;;6.20;99.90;;;;;;5106672;27;20629;-83
2022/12/26 01:41:18;;;;;;;41.57;25.43;;;6.20;99.90;;;;;;5105239;27;20704;-83
2022/12/26 01:44:54;;;;;;;46.80;25.57;;;6.20;99.90;;;;;;5105681;27;20355;-83
2022/12/26 01:47:49;;;;;;;42.47;25.80;;;6.30;99.90;;;;;;5069706;27;20230;-83
2022/12/26 01:50:42;;;;;;;44.37;25.60;;;6.20;99.90;;;;;;5105359;28;20602;-83
2022/12/26 01:53:36;;;;;;;40.33;24.53;;;6.30;99.90;;;;;;5093034;28;20260;-84
2022/12/26 01:56:32;;;;;;;42.37;25.63;;;6.30;99.90;;;;;;5104150;27;20224;-83
2022/12/26 01:59:26;;;;;;;45.60;26.33;;;6.30;99.90;;;;;;5110237;27;20222;-83
2022/12/26 02:02:16;;;;;;;42.70;25.37;;;6.20;99.90;;;;;;5088521;28;20230;-84
2022/12/26 02:08:15;;;;;;;47.97;26.60;;;6.30;99.90;;;;;;5107298;27;20218;-84
2022/12/26 02:11:10;;;;;;;46.77;26.67;;;6.30;99.90;;;;;;5117960;27;20222;-84
2022/12/26 02:14:01;;;;;;;44.27;26.10;;;6.40;99.90;;;;;;5123940;28;20242;-85
2022/12/26 02:16:50;;;;;;;45.27;27.83;;;6.30;99.90;;;;;;5112833;28;20347;-84
2022/12/26 02:19:47;;;;;;;45.83;28.03;;;6.20;99.90;;;;;;5107896;27;20235;-85
2022/12/26 02:23:14;;;;;;;46.57;27.97;;;6.20;99.90;;;;;;5149601;27;20218;-83
2022/12/26 02:26:45;;;;;;;47.83;28.07;;;6.20;99.90;;;;;;5113002;28;20252;-84
2022/12/26 02:30:05;;;;;;;45.27;27.30;;;6.10;99.90;;;;;;5121141;28;20203;-84
2022/12/26 02:33:26;;;;;;;51.23;28.03;;;6.00;99.90;;;;;;5118541;27;20227;-85
2022/12/26 02:36:30;;;;;;;46.40;28.50;;;6.10;99.90;;;;;;5103946;28;20226;-85
2022/12/26 02:39:34;;;;;;;49.27;28.63;;;6.00;99.90;;;;;;5117929;27;20253;-84
2022/12/26 02:42:43;;;;;;;48.10;28.97;;;6.00;99.90;;;;;;5106985;28;20238;-84
2022/12/26 02:48:57;;;;;;;50.60;29.63;;;6.10;99.90;;;;;;5101096;27;20229;-86
2022/12/26 03:14:48;;;;;;;54.83;29.93;;;6.10;99.90;;;;;;5097103;27;20382;-84
2022/12/26 03:17:43;;;;;;;50.10;29.50;;;6.10;99.90;;;;;;5094570;28;20228;-84
2022/12/26 03:20:35;;;;;;;49.03;28.90;;;6.10;99.90;;;;;;5094680;28;20220;-86
2022/12/26 03:23:25;;;;;;;46.67;28.20;;;6.10;99.90;;;;;;5089972;28;20229;-85
2022/12/26 03:32:42;;;;;;;50.87;28.67;;;6.00;99.90;;;;;;5094540;27;20244;-85
2022/12/26 03:35:34;;;;;;;49.37;29.60;;;5.90;99.90;;;;;;5096275;28;20832;-85
2022/12/26 03:38:29;;;;;;;52.83;29.13;;;5.90;99.90;;;;;;5097701;27;20218;-85
2022/12/26 04:20:02;;;;;;;43.03;25.43;;;5.70;99.90;;;;;;5088330;28;20227;-85
2022/12/26 04:45:15;;;;;;;40.60;26.07;;;5.60;99.90;;;;;;5092773;27;20226;-85
2022/12/26 04:51:11;;;;;;;40.90;26.07;;;5.70;99.90;;;;;;5100158;27;20219;-85
2022/12/26 04:54:01;;;;;;;38.20;23.73;;;5.70;99.90;;;;;;5099249;27;20257;-85
2022/12/26 04:56:50;;;;;;;40.07;24.57;;;5.70;99.90;;;;;;5099157;27;20227;-85
2022/12/26 04:59:38;;;;;;;38.87;24.93;;;5.60;99.90;;;;;;5104218;28;20229;-85
2022/12/26 05:12:07;;;;;;;36.43;23.33;;;5.50;99.90;;;;;;5104215;27;20226;-85
2022/12/26 05:14:56;;;;;;;37.07;24.57;;;5.60;99.90;;;;;;5107211;27;20225;-84
2022/12/26 05:30:16;;;;;;;33.50;22.43;;;5.60;99.90;;;;;;5101806;28;20215;-84
2022/12/26 05:36:12;;;;;;;31.87;21.97;;;5.50;99.90;;;;;;5104257;27;20219;-84
2022/12/26 05:39:01;;;;;;;32.97;21.63;;;5.50;99.90;;;;;;5105067;27;20317;-84
2022/12/26 05:41:50;;;;;;;36.47;21.57;;;5.50;99.90;;;;;;5101753;28;20228;-85
2022/12/26 05:44:41;;;;;;;33.70;21.50;;;5.50;99.90;;;;;;5097200;27;20923;-84
2022/12/26 05:47:29;;;;;;;30.83;20.10;;;5.40;99.90;;;;;;5106024;28;20225;-84
2022/12/26 05:50:18;;;;;;;29.67;20.43;;;5.60;99.90;;;;;;5106133;27;20219;-84
2022/12/26 05:53:07;;;;;;;33.97;19.97;;;5.60;99.90;;;;;;5107888;27;20928;-84
2022/12/26 05:55:56;;;;;;;32.07;19.50;;;5.60;99.90;;;;;;5100133;28;20733;-84
2022/12/26 05:58:45;;;;;;;32.80;20.17;;;5.60;99.90;;;;;;5134290;27;20230;-84
2022/12/26 06:01:35;;;;;;;31.23;19.73;;;5.60;99.90;;;;;;5103632;27;20814;-84
2022/12/26 06:04:25;;;;;;;30.13;19.37;;;5.60;99.90;;;;;;5105925;27;20227;-84
2022/12/26 06:07:14;;;;;;;28.93;19.73;;;5.60;99.90;;;;;;5105939;27;20613;-84
2022/12/26 06:10:05;;;;;;;30.37;19.17;;;5.70;99.90;;;;;;5106047;27;26214;-84
2022/12/26 06:12:53;;;;;;;24.70;18.10;;;5.60;99.90;;;;;;5105296;27;20219;-84
2022/12/26 06:15:42;;;;;;;28.97;18.57;;;5.50;99.90;;;;;;5107747;27;20604;-84
2022/12/26 06:18:33;;;;;;;24.03;18.07;;;5.60;99.90;;;;;;5090695;27;20246;-84
2022/12/26 06:21:22;;;;;;;24.27;17.20;;;5.60;99.90;;;;;;5127603;27;20220;-84
2022/12/26 06:24:12;;;;;;;24.67;17.37;;;5.70;99.90;;;;;;5104442;27;20314;-83
2022/12/26 06:27:01;;;;;;;26.60;17.47;;;5.70;99.90;;;;;;5126057;27;20792;-84
2022/12/26 06:29:50;;;;;;;22.53;16.90;;;5.80;99.90;;;;;;5101259;27;20224;-84
2022/12/26 06:32:39;;;;;;;20.73;15.10;;;5.80;99.90;;;;;;5092422;28;20242;-83
2022/12/26 06:35:29;;;;;;;22.50;16.07;;;5.70;99.90;;;;;;5097094;28;20227;-84
2022/12/26 06:38:23;;;;;;;23.33;15.87;;;5.70;99.90;;;;;;5106857;27;20215;-84
2022/12/26 06:41:14;;;;;;;21.63;15.03;;;5.70;99.90;;;;;;5098369;27;20297;-83
2022/12/26 06:44:03;;;;;;;23.17;14.50;;;5.70;99.90;;;;;;5105727;27;20831;-83
2022/12/26 06:46:52;;;;;;;20.57;15.40;;;5.80;99.90;;;;;;5098361;28;20228;-84
2022/12/26 06:49:41;;;;;;;19.07;14.10;;;5.80;99.90;;;;;;5108361;28;20586;-84
2022/12/26 06:52:31;;;;;;;19.27;14.70;;;5.70;99.90;;;;;;5107710;27;20230;-84
2022/12/26 06:55:20;;;;;;;21.47;15.10;;;5.80;99.90;;;;;;5100657;27;20215;-84
2022/12/26 06:58:09;;;;;;;22.00;15.83;;;5.80;99.90;;;;;;5108564;27;20713;-82
2022/12/26 07:01:04;;;;;;;20.80;14.83;;;5.80;99.90;;;;;;5105922;27;20223;-83
2022/12/26 07:03:54;;;;;;;19.93;15.23;;;5.90;99.90;;;;;;5130869;27;20227;-84
2022/12/26 07:06:43;;;;;;;21.00;15.50;;;5.80;99.90;;;;;;5121671;28;20217;-84
2022/12/26 07:09:33;;;;;;;23.20;16.53;;;5.90;99.90;;;;;;5122006;28;20229;-85
2022/12/26 07:12:22;;;;;;;20.53;15.20;;;6.00;99.90;;;;;;5117182;27;20226;-85
2022/12/26 07:15:11;;;;;;;22.80;16.17;;;6.00;99.90;;;;;;5110256;28;20257;-83
2022/12/26 07:18:00;;;;;;;21.20;15.03;;;6.00;99.90;;;;;;5130583;28;20199;-83
2022/12/26 07:20:48;;;;;;;20.80;15.40;;;6.00;99.90;;;;;;5118304;27;20460;-84
2022/12/26 07:23:37;;;;;;;20.33;15.17;;;6.00;99.90;;;;;;5102481;27;20677;-84
2022/12/26 07:26:28;;;;;;;22.00;16.30;;;6.10;99.90;;;;;;5114527;27;20231;-84
2022/12/26 07:29:16;;;;;;;23.10;16.10;;;6.10;99.90;;;;;;5111498;28;20218;-84
2022/12/26 07:32:06;;;;;;;22.73;16.13;;;6.00;99.90;;;;;;5106358;27;20226;-84
2022/12/26 07:34:55;;;;;;;21.30;15.50;;;6.00;99.90;;;;;;5099551;27;20233;-83
2022/12/26 07:37:44;;;;;;;21.83;15.80;;;6.00;99.90;;;;;;5127038;27;20237;-84
2022/12/26 07:40:32;;;;;;;23.57;15.20;;;6.00;99.90;;;;;;5101092;27;20729;-84
2022/12/26 07:43:23;;;;;;;21.40;15.87;;;6.00;99.90;;;;;;5100441;27;20224;-84
2022/12/26 07:46:11;;;;;;;19.77;15.33;;;6.00;99.90;;;;;;5129828;27;20707;-83
2022/12/26 07:49:01;;;;;;;23.40;15.33;;;6.10;99.90;;;;;;5106068;27;20227;-84
2022/12/26 07:51:49;;;;;;;19.17;14.97;;;6.10;99.90;;;;;;5092963;27;20230;-83
2022/12/26 07:54:38;;;;;;;21.60;15.17;;;6.10;99.90;;;;;;5104977;27;20249;-84
2022/12/26 07:57:27;;;;;;;21.83;16.27;;;6.20;99.90;;;;;;5091496;27;20949;-84
2022/12/26 08:00:37;;;;;;;24.33;15.90;;;6.20;99.90;;;;;;5100300;28;20224;-84
2022/12/26 08:03:25;;;;;;;23.27;15.57;;;6.30;99.90;;;;;;5101543;27;20817;-85
2022/12/26 08:06:15;;;;;;;22.37;15.23;;;6.30;99.90;;;;;;5093168;27;20223;-84
2022/12/26 08:09:04;;;;;;;20.30;14.50;;;6.20;99.90;;;;;;5104272;27;20228;-83
2022/12/26 08:11:53;;;;;;;21.17;15.20;;;6.20;99.90;;;;;;5102297;27;20999;-83
2022/12/26 08:14:41;;;;;;;22.07;16.33;;;6.20;99.90;;;;;;5129551;27;20222;-84
2022/12/26 08:17:32;;;;;;;21.87;16.23;;;6.20;99.90;;;;;;5103750;27;20216;-84
2022/12/26 08:20:20;;;;;;;22.63;15.87;;;6.20;99.90;;;;;;5105204;27;20223;-84
2022/12/26 08:23:09;;;;;;;23.33;15.60;;;6.30;99.90;;;;;;5089804;27;20223;-84
2022/12/26 08:25:59;;;;;;;22.33;15.33;;;6.20;99.90;;;;;;5099671;27;20219;-84
2022/12/26 08:28:47;;;;;;;18.87;14.70;;;6.30;99.90;;;;;;5094359;27;20606;-83
2022/12/26 08:31:36;;;;;;;25.67;15.50;;;6.30;99.90;;;;;;5104387;28;20249;-84
2022/12/26 08:34:32;;;;;;;21.77;15.40;;;6.30;99.90;;;;;;5098315;27;20575;-84
2022/12/26 08:37:22;;;;;;;21.20;15.13;;;6.40;99.90;;;;;;5092165;27;20224;-84
2022/12/26 08:40:12;;;;;;;21.50;14.90;;;6.50;99.90;;;;;;5093986;27;20241;-84
2022/12/26 08:43:06;;;;;;;21.67;16.33;;;6.50;99.90;;;;;;5105114;27;20223;-84
2022/12/26 08:46:15;;;;;;;22.87;16.33;;;6.40;99.90;;;;;;5093350;27;20242;-84
2022/12/26 08:49:04;;;;;;;25.03;14.70;;;6.50;99.90;;;;;;5125299;27;20280;-83
2022/12/26 08:51:54;;;;;;;22.30;15.50;;;6.60;99.90;;;;;;5089315;27;20219;-84
2022/12/26 08:54:44;;;;;;;24.03;16.30;;;6.50;99.90;;;;;;5093041;28;20228;-84
2022/12/26 08:57:33;;;;;;;24.77;15.93;;;6.50;99.90;;;;;;5096982;28;20226;-83
2022/12/26 09:00:25;;;;;;;23.53;16.73;;;6.50;99.90;;;;;;5116761;27;20233;-84
2022/12/26 09:03:14;;;;;;;21.77;15.63;;;6.60;99.90;;;;;;5095726;28;20749;-84
2022/12/26 09:06:03;;;;;;;22.30;16.17;;;6.70;99.90;;;;;;5097007;27;21132;-84
2022/12/26 09:08:55;;;;;;;23.77;16.23;;;6.70;99.90;;;;;;5093653;28;20335;-84
2022/12/26 09:11:44;;;;;;;26.60;16.07;;;6.70;99.90;;;;;;5103841;27;20233;-82
2022/12/26 09:14:33;;;;;;;22.43;15.60;;;6.70;99.90;;;;;;5105206;28;20230;-84
2022/12/26 09:17:22;;;;;;;27.43;16.33;;;6.80;99.90;;;;;;5118393;27;20622;-84
2022/12/26 09:20:11;;;;;;;24.00;16.53;;;6.80;99.90;;;;;;5095984;28;20225;-84
2022/12/26 09:23:06;;;;;;;25.73;16.67;;;6.80;99.90;;;;;;5090729;27;20276;-84
2022/12/26 09:26:02;;;;;;;23.77;17.20;;;6.80;99.90;;;;;;5095005;27;20227;-84
2022/12/26 09:28:53;;;;;;;24.27;17.27;;;6.80;99.90;;;;;;5099539;27;20857;-85
2022/12/26 09:31:42;;;;;;;23.40;16.63;;;6.80;99.90;;;;;;5097076;28;20230;-85
2022/12/26 09:34:30;;;;;;;28.03;17.33;;;6.90;99.90;;;;;;5097617;27;20230;-84
2022/12/26 09:37:19;;;;;;;23.10;16.53;;;6.90;99.90;;;;;;5102968;27;20784;-85
2022/12/26 09:40:20;;;;;;;25.50;17.47;;;6.90;99.90;;;;;;5098994;28;20227;-85
2022/12/26 09:43:29;;;;;;;23.27;16.97;;;7.00;99.90;;;;;;5095918;27;20267;-84
2022/12/26 09:46:29;;;;;;;26.43;17.53;;;7.00;99.90;;;;;;5097864;28;20251;-85
2022/12/26 09:49:21;;;;;;;25.47;17.27;;;7.10;99.90;;;;;;5098283;27;20217;-85
2022/12/26 09:52:19;;;;;;;28.87;18.40;;;7.10;99.90;;;;;;5098727;27;20216;-85
2022/12/26 09:55:34;;;;;;;26.77;17.60;;;7.00;99.90;;;;;;5100821;27;20231;-84
2022/12/26 09:58:29;;;;;;;27.63;18.50;;;7.10;99.90;;;;;;5098494;27;20656;-85
2022/12/26 10:01:20;;;;;;;26.63;16.97;;;7.20;99.90;;;;;;5108638;27;20211;-85
2022/12/26 10:04:23;;;;;;;25.93;17.93;;;7.20;99.90;;;;;;5107429;27;20217;-85
2022/12/26 10:07:25;;;;;;;31.13;19.03;;;7.20;99.90;;;;;;5106488;28;20256;-85
2022/12/26 10:10:20;;;;;;;28.57;19.17;;;7.30;99.90;;;;;;5096814;27;20634;-83
2022/12/26 10:13:18;;;;;;;29.50;19.37;;;7.30;99.90;;;;;;5100066;28;20271;-85
2022/12/26 10:16:14;;;;;;;27.90;18.47;;;7.30;99.90;;;;;;5107964;27;20215;-85
2022/12/26 10:19:10;;;;;;;26.73;18.03;;;7.40;99.90;;;;;;5107021;27;21293;-85
2022/12/26 10:22:14;;;;;;;31.33;19.43;;;7.40;99.90;;;;;;5096692;28;20226;-85
2022/12/26 10:25:13;;;;;;;29.83;18.77;;;7.50;99.90;;;;;;5095976;28;20211;-84
2022/12/26 10:28:04;;;;;;;30.57;19.30;;;7.50;99.90;;;;;;5107896;27;20709;-84
2022/12/26 10:30:56;;;;;;;29.00;18.90;;;7.70;99.90;;;;;;5109892;27;20219;-83
2022/12/26 10:33:51;;;;;;;28.30;19.03;;;7.70;99.90;;;;;;5108888;27;20242;-85
2022/12/26 10:36:44;;;;;;;30.30;19.37;;;7.70;99.90;;;;;;5108153;27;20225;-84
2022/12/26 10:39:38;;;;;;;28.87;19.03;;;7.80;99.90;;;;;;5132956;27;20226;-85
2022/12/26 10:42:33;;;;;;;31.37;20.03;;;7.90;99.90;;;;;;5100093;27;20227;-84
2022/12/26 10:45:28;;;;;;;30.77;19.77;;;7.90;99.90;;;;;;5089820;28;20646;-85
2022/12/26 10:48:17;;;;;;;26.70;17.97;;;8.00;99.90;;;;;;5115632;27;20594;-85
2022/12/26 10:51:08;;;;;;;30.30;19.80;;;8.00;99.90;;;;;;5105812;27;20753;-85
2022/12/26 10:54:01;;;;;;;32.27;19.87;;;8.10;99.90;;;;;;5106703;28;20906;-85
2022/12/26 10:56:52;;;;;;;32.23;20.13;;;8.10;99.90;;;;;;5105515;27;20223;-85
2022/12/26 10:59:45;;;;;;;30.20;19.97;;;8.20;99.90;;;;;;5106857;28;20837;-85
2022/12/26 11:02:34;;;;;;;34.97;21.13;;;8.30;99.90;;;;;;5096503;28;20215;-86
2022/12/26 11:05:23;;;;;;;28.60;19.20;;;8.30;99.90;;;;;;5099009;27;20215;-84
2022/12/26 11:08:37;;;;;;;31.40;20.07;;;8.30;99.90;;;;;;5113368;28;20245;-85
2022/12/26 11:11:45;;;;;;;28.93;18.97;;;8.40;99.90;;;;;;5114819;27;20233;-85
2022/12/26 11:14:38;;;;;;;29.40;19.37;;;8.40;99.90;;;;;;5106671;28;20598;-85
2022/12/26 11:17:29;;;;;;;30.30;19.17;;;8.40;99.90;;;;;;5107242;27;20222;-85
2022/12/26 11:20:28;;;;;;;33.53;19.30;;;8.50;99.90;;;;;;5100635;27;20907;-85
2022/12/26 11:23:26;;;;;;;34.55;19.23;;;8.50;99.90;;;;;;5095629;27;20225;-85
2022/12/26 11:26:24;;;;;;;28.38;19.42;;;8.60;99.90;;;;;;5103957;27;20222;-85
2022/12/26 11:29:16;;;;;;;28.33;19.67;;;8.70;99.90;;;;;;5130525;27;20585;-85
2022/12/26 11:32:05;;;;;;;28.87;19.57;;;8.70;99.90;;;;;;5101856;28;20222;-87
2022/12/26 11:34:54;;;;;;;30.58;19.33;;;8.80;99.90;;;;;;5104086;27;20219;-86
2022/12/26 11:37:49;;;;;;;31.93;19.30;;;8.80;99.90;;;;;;5096766;28;20260;-82
2022/12/26 11:41:30;;;;;;;29.02;18.55;;;9.00;99.90;;;;;;5100095;28;20226;-85
2022/12/26 11:43:59;;;;;;;28.05;18.25;;;9.00;99.90;;;;;;5096358;27;20602;-86
2022/12/26 11:46:54;;;;;;;26.33;17.80;;;9.10;99.90;;;;;;5096689;27;20228;-85
2022/12/26 11:49:52;;;;;;;26.17;17.15;;;9.20;99.90;;;;;;5096121;27;20713;-85
2022/12/26 11:52:44;;;;;;;26.52;17.10;;;9.20;99.90;;;;;;5122878;27;20241;-86
2022/12/26 11:55:37;;;;;;;24.50;17.00;;;9.40;99.90;;;;;;5096856;28;20713;-85
2022/12/26 11:58:29;;;;;;;20.63;15.00;;;9.50;99.90;;;;;;5105770;27;20227;-86
2022/12/26 12:01:21;;;;;;;24.35;16.27;;;9.70;99.90;;;;;;5098616;27;20222;-85
2022/12/26 12:04:10;;;;;;;22.02;15.38;;;9.70;99.90;;;;;;5097230;27;20246;-86
2022/12/26 12:07:06;;;;;;;24.30;14.75;;;9.70;99.90;;;;;;5097502;27;20223;-85
2022/12/26 12:10:02;;;;;;;22.67;14.77;;;9.80;99.90;;;;;;5088028;27;20223;-86
2022/12/26 12:12:56;;;;;;;18.75;13.55;;;9.80;99.90;;;;;;5103753;27;20237;-87
2022/12/26 12:15:52;;;;;;;21.13;14.23;;;9.80;99.90;;;;;;5097511;27;20227;-85
2022/12/26 12:18:53;;;;;;;20.67;13.95;;;9.90;99.90;;;;;;5103860;28;20597;-85
2022/12/26 12:21:44;;;;;;;18.42;13.68;;;9.90;99.90;;;;;;5100533;28;20230;-85
2022/12/26 12:24:52;;;;;;;17.55;12.75;;;10.00;99.90;;;;;;5088047;28;20219;-86
2022/12/26 12:27:47;;;;;;;22.05;13.10;;;10.00;99.90;;;;;;5103387;27;20218;-86
2022/12/26 12:30:43;;;;;;;20.52;12.95;;;10.10;99.90;;;;;;5096719;28;20230;-86
2022/12/26 12:33:44;;;;;;;19.95;13.23;;;10.10;99.90;;;;;;5105447;28;20223;-85
2022/12/26 12:36:39;;;;;;;21.40;12.80;;;10.10;99.90;;;;;;5085979;28;20245;-86
2022/12/26 12:39:39;;;;;;;23.20;13.70;;;10.20;99.90;;;;;;5093852;28;20260;-86
2022/12/26 12:42:38;;;;;;;18.77;13.40;;;10.10;99.90;;;;;;5095420;28;20275;-85
2022/12/26 12:45:35;;;;;;;19.08;12.75;;;10.20;99.90;;;;;;5105314;27;20215;-86
2022/12/26 12:48:39;;;;;;;30.13;20.38;;;10.20;99.90;;;;;;5105721;28;20298;-85
2022/12/26 12:51:38;;;;;;;20.92;13.63;;;10.20;99.90;;;;;;5097433;27;20218;-85
2022/12/26 12:55:02;;;;;;;22.65;14.07;;;10.20;99.90;;;;;;5107367;27;20223;-86
2022/12/26 12:57:56;;;;;;;18.30;13.68;;;10.20;99.90;;;;;;5099589;27;20226;-86
2022/12/26 13:00:48;;;;;;;18.20;14.02;;;10.30;99.90;;;;;;5109660;27;20215;-86
2022/12/26 13:03:43;;;;;;;19.70;14.45;;;10.30;99.90;;;;;;5096674;28;20302;-86
2022/12/26 13:06:40;;;;;;;18.15;13.25;;;10.40;99.90;;;;;;5087089;28;20227;-85
2022/12/26 13:09:34;;;;;;;19.38;14.10;;;10.40;99.90;;;;;;5099911;28;20215;-85
2022/12/26 13:12:29;;;;;;;19.70;13.85;;;10.40;99.90;;;;;;5098845;27;20215;-86
2022/12/26 13:15:29;;;;;;;19.02;12.88;;;10.40;99.90;;;;;;5104234;27;20214;-86
2022/12/26 13:18:22;;;;;;;21.08;14.45;;;10.50;99.90;;;;;;5097277;27;21091;-85
2022/12/26 13:21:13;;;;;;;22.20;14.73;;;10.40;99.90;;;;;;5093844;28;20215;-85
2022/12/26 13:24:24;;;;;;;27.98;14.07;;;10.40;99.90;;;;;;5099451;27;20584;-86
2022/12/26 13:27:18;;;;;;;21.25;13.25;;;10.40;99.90;;;;;;5136490;27;20245;-85
2022/12/26 13:30:13;;;;;;;19.98;13.32;;;10.40;99.90;;;;;;5106949;27;20219;-85
2022/12/26 13:33:02;;;;;;;22.98;13.27;;;10.40;99.90;;;;;;5100041;27;20712;-86
2022/12/26 13:35:55;;;;;;;19.90;13.13;;;10.40;99.90;;;;;;5105953;27;20218;-84
2022/12/26 13:39:19;;;;;;;18.35;12.80;;;10.40;99.90;;;;;;5099728;28;20718;-85
2022/12/26 13:45:53;;;;;;;17.08;11.93;;;10.50;99.90;;;;;;5101105;28;20253;-86
2022/12/26 13:48:58;;;;;;;15.93;11.13;;;10.50;99.90;;;;;;5098490;28;20215;-85
2022/12/26 13:51:52;;;;;;;17.83;11.82;;;10.50;99.90;;;;;;5127325;27;20313;-85
2022/12/26 13:55:20;;;;;;;18.60;12.30;;;10.50;99.90;;;;;;5101361;28;20586;-86
2022/12/26 13:58:22;;;;;;;15.63;11.48;;;10.50;99.90;;;;;;5106239;27;20898;-86
2022/12/26 14:01:28;;;;;;;15.57;11.40;;;10.50;99.90;;;;;;5107459;27;20221;-86
2022/12/26 14:04:34;;;;;;;14.57;10.90;;;10.50;99.90;;;;;;5106481;27;20226;-86
2022/12/26 14:07:29;;;;;;;17.10;11.25;;;10.50;99.90;;;;;;5114090;27;21024;-85
2022/12/26 14:10:24;;;;;;;19.67;13.15;;;10.60;99.90;;;;;;5133706;27;20222;-86
2022/12/26 14:13:33;;;;;;;16.17;11.73;;;10.70;99.90;;;;;;5096812;27;20223;-85
2022/12/26 14:16:29;;;;;;;16.73;10.88;;;10.60;99.90;;;;;;5097947;27;20221;-87
2022/12/26 14:19:34;;;;;;;17.92;11.70;;;10.70;99.90;;;;;;5092796;27;20882;-85
2022/12/26 14:22:35;;;;;;;16.75;11.20;;;10.60;99.90;;;;;;5101623;27;20219;-86
2022/12/26 14:25:30;;;;;;;19.13;11.27;;;10.60;99.90;;;;;;5125945;27;20215;-87
2022/12/26 14:28:27;;;;;;;14.57;10.25;;;10.60;99.90;;;;;;5109591;27;20218;-85
2022/12/26 14:31:22;;;;;;;14.40;10.77;;;10.60;99.90;;;;;;5095071;27;20231;-86
2022/12/26 14:34:25;;;;;;;15.90;11.10;;;10.60;99.90;;;;;;5103047;27;20230;-86
2022/12/26 14:37:22;;;;;;;17.27;11.45;;;10.60;99.90;;;;;;5107302;27;20242;-86
2022/12/26 14:40:29;;;;;;;17.00;10.57;;;10.60;99.90;;;;;;5090635;27;20240;-85
2022/12/26 14:43:31;;;;;;;13.68;9.90;;;10.70;99.90;;;;;;5106566;27;20230;-85
2022/12/26 14:46:57;;;;;;;16.05;10.52;;;10.60;99.90;;;;;;5092598;27;20308;-87
2022/12/26 14:49:46;;;;;;;20.10;11.10;;;10.60;99.90;;;;;;5104822;27;20594;-86
2022/12/26 14:52:42;;;;;;;14.63;10.27;;;10.70;99.90;;;;;;5108183;27;20222;-86
2022/12/26 14:55:47;;;;;;;19.02;10.73;;;10.70;99.90;;;;;;5129411;27;20223;-86
2022/12/26 14:58:43;;;;;;;15.70;10.23;;;10.70;99.90;;;;;;5097233;28;20291;-86
2022/12/26 15:01:53;;;;;;;16.02;11.43;;;10.60;99.90;;;;;;5103871;28;20689;-86
2022/12/26 15:05:08;;;;;;;15.68;10.45;;;10.70;99.90;;;;;;5118865;27;20669;-85
2022/12/26 15:08:29;;;;;;;17.52;10.93;;;10.70;99.90;;;;;;5105136;27;20223;-86
2022/12/26 15:11:58;;;;;;;14.75;11.35;;;10.70;99.90;;;;;;5112934;27;20298;-86
2022/12/26 15:15:19;;;;;;;17.67;11.35;;;10.70;99.90;;;;;;5111329;27;20241;-87
2022/12/26 15:18:42;;;;;;;19.90;12.40;;;10.70;99.90;;;;;;5119994;27;20234;-87
2022/12/26 15:21:58;;;;;;;15.45;11.55;;;10.60;99.90;;;;;;5109997;28;20712;-86
2022/12/26 15:25:10;;;;;;;18.05;11.13;;;10.70;99.90;;;;;;5091789;28;20737;-86
2022/12/26 15:28:54;;;;;;;20.15;11.95;;;10.60;99.90;;;;;;5094390;27;20237;-86
2022/12/26 15:31:55;;;;;;;22.80;12.90;;;10.60;99.90;;;;;;5087606;27;20243;-86
2022/12/26 15:35:01;;;;;;;17.35;12.40;;;10.60;99.90;;;;;;5098049;27;20278;-82
2022/12/26 15:38:15;;;;;;;18.33;12.73;;;10.60;99.90;;;;;;5133182;27;21093;-86
2022/12/26 15:41:13;;;;;;;18.48;12.57;;;10.50;99.90;;;;;;5099588;27;20222;-86
2022/12/26 15:44:18;;;;;;;21.13;13.23;;;10.50;99.90;;;;;;5098655;28;20222;-85
2022/12/26 15:47:17;;;;;;;22.38;13.75;;;10.40;99.90;;;;;;5098361;27;20218;-86
2022/12/26 15:50:27;;;;;;;22.92;14.20;;;10.30;99.90;;;;;;5105831;28;20222;-87
2022/12/26 15:53:26;;;;;;;19.48;13.50;;;10.30;99.90;;;;;;5086024;27;20227;-88
2022/12/26 15:56:54;;;;;;;20.23;13.13;;;10.30;99.90;;;;;;5094587;27;20219;-87
2022/12/26 16:00:07;;;;;;;22.38;14.65;;;10.30;99.90;;;;;;5091133;27;20217;-87
2022/12/26 16:03:30;;;;;;;22.42;14.05;;;10.30;99.90;;;;;;5079735;28;20231;-87
2022/12/26 16:06:32;;;;;;;18.45;13.70;;;10.30;99.90;;;;;;5096928;27;20282;-87
2022/12/26 16:09:35;;;;;;;21.77;14.27;;;10.30;99.90;;;;;;5128037;27;20225;-87
2022/12/26 16:12:26;;;;;;;20.52;14.02;;;10.20;99.90;;;;;;5096414;27;20222;-87
2022/12/26 16:15:18;;;;;;;22.80;13.80;;;10.20;99.90;;;;;;5116511;27;20229;-87
2022/12/26 16:18:14;;;;;;;23.48;15.48;;;10.30;99.90;;;;;;5090372;28;20227;-87
2022/12/26 16:24:16;;;;;;;24.08;15.07;;;10.30;99.90;;;;;;5107391;27;20279;-86
2022/12/26 16:27:08;;;;;;;18.48;13.95;;;10.30;99.90;;;;;;5099006;28;20268;-85
2022/12/26 16:30:02;;;;;;;18.92;13.02;;;10.30;99.90;;;;;;5096132;27;20231;-86
2022/12/26 16:33:02;;;;;;;20.02;14.00;;;10.40;99.90;;;;;;5106025;27;20214;-88
2022/12/26 16:35:52;;;;;;;22.33;14.13;;;10.40;99.90;;;;;;5101097;27;20220;-87
2022/12/26 16:38:49;;;;;;;21.05;14.13;;;10.40;99.90;;;;;;5108299;27;20234;-87
2022/12/26 16:41:56;;;;;;;18.25;12.23;;;10.40;99.90;;;;;;5098753;28;20231;-87
2022/12/26 16:44:45;;;;;;;16.73;11.90;;;10.40;99.90;;;;;;5088622;28;20214;-87
2022/12/26 16:47:34;;;;;;;19.88;12.48;;;10.40;99.90;;;;;;5107380;27;20214;-89
2022/12/26 16:50:27;;;;;;;16.52;12.05;;;10.40;99.90;;;;;;5088577;28;20551;-87
2022/12/26 16:53:18;;;;;;;16.20;11.93;;;10.50;99.90;;;;;;5107148;27;20892;-87
2022/12/26 16:56:21;;;;;;;17.70;12.02;;;10.50;99.90;;;;;;5104108;27;20222;-87
2022/12/26 16:59:15;;;;;;;18.15;11.75;;;10.50;99.90;;;;;;5114613;27;20588;-88
2022/12/26 17:02:05;;;;;;;18.85;11.80;;;10.50;99.90;;;;;;5107966;28;20224;-87
2022/12/26 17:05:00;;;;;;;16.38;11.02;;;10.50;99.90;;;;;;5123564;27;20229;-87
2022/12/26 17:07:53;;;;;;;15.35;11.10;;;10.60;99.90;;;;;;5092146;28;20319;-86
2022/12/26 17:10:47;;;;;;;16.55;11.18;;;10.50;99.90;;;;;;5112099;27;20215;-88